PWSweather.com
Personal Weather Stations
Station Observations
BETACDT
Kansas City, MT

Kansas City, MT

Lat: 39.287, Lon: -94.447

Elevation: 961

Station Type:

High Low Average
Temperature 48.6°F9.2°C 31.5°F-0.3°C 40.1°F4.5°C
Dew Point 38.6°F3.7°C 27.3°F-2.6°C 31.5°F-0.3°C
Winds 21.0 mph 33.8 kmh Calm Calm 9.0 mph SW14.5 kmh SW
Wind Gusts -- -- --
Humidity 93% 47% 73%
Pressure 30.26 in1024.7 mb 30.08 in1018.6 mb -
Precipitation 0.00 in0.0 mm - -
Hour Temp Dew Point Humidity Winds Wind Gusts Pressure Precip Precip Rate Daily Precip Total
12:03 AM 40.5°F4.7°C 38.4°F3.6°C 92% 10.0 mph W16.1 kmh W -- 30.08 in1018.6 mb 0.00 in0.0 mm 0.00 in0.0 mm 0.00 in0.0 mm
12:08 AM 40.5°F4.7°C 38.6°F3.7°C 93% 9.0 mph W14.5 kmh W -- 30.08 in1018.6 mb 0.00 in0.0 mm 0.00 in0.0 mm 0.00 in0.0 mm
12:13 AM 40.3°F4.6°C 38.4°F3.6°C 93% 11.0 mph W17.7 kmh W -- 30.08 in1018.6 mb 0.00 in0.0 mm 0.00 in0.0 mm 0.00 in0.0 mm
12:18 AM 40.3°F4.6°C 38.4°F3.6°C 93% 14.0 mph W22.5 kmh W -- 30.08 in1018.6 mb 0.00 in0.0 mm 0.00 in0.0 mm 0.00 in0.0 mm
12:23 AM 40.3°F4.6°C 38.2°F3.4°C 92% 9.0 mph W14.5 kmh W -- 30.08 in1018.6 mb 0.00 in0.0 mm 0.00 in0.0 mm 0.00 in0.0 mm
12:28 AM 40.3°F4.6°C 37.9°F3.3°C 91% 8.0 mph S12.9 kmh S -- 30.08 in1018.6 mb 0.00 in0.0 mm 0.00 in0.0 mm 0.00 in0.0 mm
12:33 AM 40.3°F4.6°C 37.9°F3.3°C 91% 17.0 mph WSW27.4 kmh WSW -- 30.08 in1018.6 mb 0.00 in0.0 mm 0.00 in0.0 mm 0.00 in0.0 mm
12:38 AM 40.3°F4.6°C 37.9°F3.3°C 91% 12.0 mph W19.3 kmh W -- 30.09 in1019.0 mb 0.00 in0.0 mm 0.00 in0.0 mm 0.00 in0.0 mm
12:43 AM 40.3°F4.6°C 37.9°F3.3°C 91% 5.0 mph W8.0 kmh W -- 30.09 in1019.0 mb 0.00 in0.0 mm 0.00 in0.0 mm 0.00 in0.0 mm
12:48 AM 40.3°F4.6°C 37.6°F3.1°C 90% 19.0 mph WSW30.6 kmh WSW -- 30.10 in1019.3 mb 0.00 in0.0 mm 0.00 in0.0 mm 0.00 in0.0 mm
12:53 AM 40.3°F4.6°C 37.6°F3.1°C 90% 10.0 mph W16.1 kmh W -- 30.10 in1019.3 mb 0.00 in0.0 mm 0.00 in0.0 mm 0.00 in0.0 mm
12:58 AM 40.3°F4.6°C 37.6°F3.1°C 90% 9.0 mph W14.5 kmh W -- 30.11 in1019.6 mb 0.00 in0.0 mm 0.00 in0.0 mm 0.00 in0.0 mm
01:03 AM 40.3°F4.6°C 37.0°F2.8°C 88% 8.0 mph W12.9 kmh W -- 30.10 in1019.3 mb 0.00 in0.0 mm 0.00 in0.0 mm 0.00 in0.0 mm
01:08 AM 40.3°F4.6°C 37.0°F2.8°C 88% 13.0 mph W20.9 kmh W -- 30.11 in1019.6 mb 0.00 in0.0 mm 0.00 in0.0 mm 0.00 in0.0 mm
01:13 AM 40.3°F4.6°C 37.0°F2.8°C 88% 12.0 mph W19.3 kmh W -- 30.11 in1019.6 mb 0.00 in0.0 mm 0.00 in0.0 mm 0.00 in0.0 mm
01:18 AM 40.3°F4.6°C 36.7°F2.6°C 87% 13.0 mph WSW20.9 kmh WSW -- 30.11 in1019.6 mb 0.00 in0.0 mm 0.00 in0.0 mm 0.00 in0.0 mm
01:23 AM 40.1°F4.5°C 36.5°F2.5°C 87% 14.0 mph W22.5 kmh W -- 30.11 in1019.6 mb 0.00 in0.0 mm 0.00 in0.0 mm 0.00 in0.0 mm
01:28 AM 40.1°F4.5°C 36.5°F2.5°C 87% 11.0 mph W17.7 kmh W -- 30.11 in1019.6 mb 0.00 in0.0 mm 0.00 in0.0 mm 0.00 in0.0 mm
01:33 AM 40.1°F4.5°C 36.5°F2.5°C 87% 9.0 mph W14.5 kmh W -- 30.11 in1019.6 mb 0.00 in0.0 mm 0.00 in0.0 mm 0.00 in0.0 mm
01:38 AM 40.1°F4.5°C 36.8°F2.7°C 88% 10.0 mph W16.1 kmh W -- 30.10 in1019.3 mb 0.00 in0.0 mm 0.00 in0.0 mm 0.00 in0.0 mm
01:43 AM 40.1°F4.5°C 36.8°F2.7°C 88% 7.0 mph W11.3 kmh W -- 30.11 in1019.6 mb 0.00 in0.0 mm 0.00 in0.0 mm 0.00 in0.0 mm
01:48 AM 40.1°F4.5°C 36.8°F2.7°C 88% 8.0 mph WSW12.9 kmh WSW -- 30.11 in1019.6 mb 0.00 in0.0 mm 0.00 in0.0 mm 0.00 in0.0 mm
01:53 AM 39.9°F4.4°C 36.6°F2.6°C 88% 9.0 mph SW14.5 kmh SW -- 30.11 in1019.6 mb 0.00 in0.0 mm 0.00 in0.0 mm 0.00 in0.0 mm
01:58 AM 39.9°F4.4°C 36.6°F2.6°C 88% 16.0 mph W25.7 kmh W -- 30.11 in1019.6 mb 0.00 in0.0 mm 0.00 in0.0 mm 0.00 in0.0 mm
02:03 AM 39.7°F4.3°C 36.4°F2.4°C 88% 10.0 mph W16.1 kmh W -- 30.12 in1020.0 mb 0.00 in0.0 mm 0.00 in0.0 mm 0.00 in0.0 mm
02:08 AM 39.7°F4.3°C 36.2°F2.3°C 87% 10.0 mph WSW16.1 kmh WSW -- 30.12 in1020.0 mb 0.00 in0.0 mm 0.00 in0.0 mm 0.00 in0.0 mm
02:13 AM 39.6°F4.2°C 36.1°F2.3°C 87% 21.0 mph W33.8 kmh W -- 30.12 in1020.0 mb 0.00 in0.0 mm 0.00 in0.0 mm 0.00 in0.0 mm
02:18 AM 39.4°F4.1°C 35.6°F2.0°C 86% 11.0 mph W17.7 kmh W -- 30.12 in1020.0 mb 0.00 in0.0 mm 0.00 in0.0 mm 0.00 in0.0 mm
02:23 AM 39.4°F4.1°C 35.6°F2.0°C 86% 8.0 mph W12.9 kmh W -- 30.13 in1020.3 mb 0.00 in0.0 mm 0.00 in0.0 mm 0.00 in0.0 mm
02:28 AM 39.4°F4.1°C 35.6°F2.0°C 86% 8.0 mph W12.9 kmh W -- 30.12 in1020.0 mb 0.00 in0.0 mm 0.00 in0.0 mm 0.00 in0.0 mm
02:33 AM 39.4°F4.1°C 35.9°F2.2°C 87% 11.0 mph WSW17.7 kmh WSW -- 30.13 in1020.3 mb 0.00 in0.0 mm 0.00 in0.0 mm 0.00 in0.0 mm
02:38 AM 39.4°F4.1°C 36.1°F2.3°C 88% 12.0 mph W19.3 kmh W -- 30.13 in1020.3 mb 0.00 in0.0 mm 0.00 in0.0 mm 0.00 in0.0 mm
02:43 AM 39.4°F4.1°C 35.6°F2.0°C 86% 12.0 mph W19.3 kmh W -- 30.13 in1020.3 mb 0.00 in0.0 mm 0.00 in0.0 mm 0.00 in0.0 mm
02:48 AM 39.4°F4.1°C 35.3°F1.8°C 85% 15.0 mph W24.1 kmh W -- 30.13 in1020.3 mb 0.00 in0.0 mm 0.00 in0.0 mm 0.00 in0.0 mm
02:53 AM 39.2°F4.0°C 35.1°F1.7°C 85% 19.0 mph W30.6 kmh W -- 30.12 in1020.0 mb 0.00 in0.0 mm 0.00 in0.0 mm 0.00 in0.0 mm
02:58 AM 39.2°F4.0°C 34.8°F1.6°C 84% 10.0 mph WSW16.1 kmh WSW -- 30.12 in1020.0 mb 0.00 in0.0 mm 0.00 in0.0 mm 0.00 in0.0 mm
03:03 AM 39.2°F4.0°C 34.8°F1.6°C 84% 10.0 mph W16.1 kmh W -- 30.12 in1020.0 mb 0.00 in0.0 mm 0.00 in0.0 mm 0.00 in0.0 mm
03:08 AM 39.0°F3.9°C 34.6°F1.4°C 84% 11.0 mph W17.7 kmh W -- 30.13 in1020.3 mb 0.00 in0.0 mm 0.00 in0.0 mm 0.00 in0.0 mm
03:13 AM 39.0°F3.9°C 34.6°F1.4°C 84% 12.0 mph W19.3 kmh W -- 30.13 in1020.3 mb 0.00 in0.0 mm 0.00 in0.0 mm 0.00 in0.0 mm
03:18 AM 39.0°F3.9°C 34.6°F1.4°C 84% 9.0 mph W14.5 kmh W -- 30.14 in1020.7 mb 0.00 in0.0 mm 0.00 in0.0 mm 0.00 in0.0 mm
03:23 AM 39.0°F3.9°C 34.9°F1.6°C 85% 8.0 mph W12.9 kmh W -- 30.15 in1021.0 mb 0.00 in0.0 mm 0.00 in0.0 mm 0.00 in0.0 mm
03:28 AM 39.0°F3.9°C 34.9°F1.6°C 85% 12.0 mph WSW19.3 kmh WSW -- 30.15 in1021.0 mb 0.00 in0.0 mm 0.00 in0.0 mm 0.00 in0.0 mm
03:33 AM 39.0°F3.9°C 34.9°F1.6°C 85% 12.0 mph W19.3 kmh W -- 30.15 in1021.0 mb 0.00 in0.0 mm 0.00 in0.0 mm 0.00 in0.0 mm
03:38 AM 38.8°F3.8°C 35.0°F1.7°C 86% 10.0 mph W16.1 kmh W -- 30.15 in1021.0 mb 0.00 in0.0 mm 0.00 in0.0 mm 0.00 in0.0 mm
03:43 AM 38.8°F3.8°C 35.0°F1.7°C 86% 15.0 mph W24.1 kmh W -- 30.15 in1021.0 mb 0.00 in0.0 mm 0.00 in0.0 mm 0.00 in0.0 mm
03:48 AM 38.8°F3.8°C 35.0°F1.7°C 86% 8.0 mph W12.9 kmh W -- 30.14 in1020.7 mb 0.00 in0.0 mm 0.00 in0.0 mm 0.00 in0.0 mm
03:53 AM 38.8°F3.8°C 35.0°F1.7°C 86% 10.0 mph W16.1 kmh W -- 30.14 in1020.7 mb 0.00 in0.0 mm 0.00 in0.0 mm 0.00 in0.0 mm
03:58 AM 38.8°F3.8°C 35.0°F1.7°C 86% 6.0 mph W9.7 kmh W -- 30.14 in1020.7 mb 0.00 in0.0 mm 0.00 in0.0 mm 0.00 in0.0 mm
04:03 AM 38.8°F3.8°C 35.0°F1.7°C 86% 8.0 mph W12.9 kmh W -- 30.14 in1020.7 mb 0.00 in0.0 mm 0.00 in0.0 mm 0.00 in0.0 mm
04:08 AM 38.8°F3.8°C 35.3°F1.8°C 87% 9.0 mph WSW14.5 kmh WSW -- 30.13 in1020.3 mb 0.00 in0.0 mm 0.00 in0.0 mm 0.00 in0.0 mm
04:13 AM 38.8°F3.8°C 35.0°F1.7°C 86% 13.0 mph W20.9 kmh W -- 30.13 in1020.3 mb 0.00 in0.0 mm 0.00 in0.0 mm 0.00 in0.0 mm
04:18 AM 38.8°F3.8°C 35.0°F1.7°C 86% 9.0 mph SW14.5 kmh SW -- 30.14 in1020.7 mb 0.00 in0.0 mm 0.00 in0.0 mm 0.00 in0.0 mm
04:23 AM 38.8°F3.8°C 35.0°F1.7°C 86% 16.0 mph W25.7 kmh W -- 30.14 in1020.7 mb 0.00 in0.0 mm 0.00 in0.0 mm 0.00 in0.0 mm
04:28 AM 38.8°F3.8°C 35.0°F1.7°C 86% 8.0 mph W12.9 kmh W -- 30.14 in1020.7 mb 0.00 in0.0 mm 0.00 in0.0 mm 0.00 in0.0 mm
04:33 AM 38.8°F3.8°C 35.0°F1.7°C 86% 10.0 mph W16.1 kmh W -- 30.14 in1020.7 mb 0.00 in0.0 mm 0.00 in0.0 mm 0.00 in0.0 mm
04:38 AM 38.8°F3.8°C 35.0°F1.7°C 86% 10.0 mph SW16.1 kmh SW -- 30.14 in1020.7 mb 0.00 in0.0 mm 0.00 in0.0 mm 0.00 in0.0 mm
04:43 AM 38.8°F3.8°C 35.0°F1.7°C 86% 8.0 mph W12.9 kmh W -- 30.15 in1021.0 mb 0.00 in0.0 mm 0.00 in0.0 mm 0.00 in0.0 mm
04:48 AM 38.7°F3.7°C 34.9°F1.6°C 86% 10.0 mph WSW16.1 kmh WSW -- 30.15 in1021.0 mb 0.00 in0.0 mm 0.00 in0.0 mm 0.00 in0.0 mm
04:53 AM 38.7°F3.7°C 34.9°F1.6°C 86% 8.0 mph W12.9 kmh W -- 30.15 in1021.0 mb 0.00 in0.0 mm 0.00 in0.0 mm 0.00 in0.0 mm
04:58 AM 38.7°F3.7°C 34.6°F1.4°C 85% 10.0 mph W16.1 kmh W -- 30.16 in1021.3 mb 0.00 in0.0 mm 0.00 in0.0 mm 0.00 in0.0 mm
05:03 AM 38.7°F3.7°C 34.9°F1.6°C 86% 6.0 mph W9.7 kmh W -- 30.16 in1021.3 mb 0.00 in0.0 mm 0.00 in0.0 mm 0.00 in0.0 mm
05:08 AM 38.7°F3.7°C 34.9°F1.6°C 86% 11.0 mph W17.7 kmh W -- 30.16 in1021.3 mb 0.00 in0.0 mm 0.00 in0.0 mm 0.00 in0.0 mm
05:13 AM 38.7°F3.7°C 34.6°F1.4°C 85% 9.0 mph W14.5 kmh W -- 30.17 in1021.7 mb 0.00 in0.0 mm 0.00 in0.0 mm 0.00 in0.0 mm
05:18 AM 38.7°F3.7°C 34.6°F1.4°C 85% 15.0 mph W24.1 kmh W -- 30.17 in1021.7 mb 0.00 in0.0 mm 0.00 in0.0 mm 0.00 in0.0 mm
05:23 AM 38.7°F3.7°C 34.6°F1.4°C 85% 8.0 mph SSW12.9 kmh SSW -- 30.18 in1022.0 mb 0.00 in0.0 mm 0.00 in0.0 mm 0.00 in0.0 mm
05:28 AM 38.5°F3.6°C 34.1°F1.2°C 84% 11.0 mph SSW17.7 kmh SSW -- 30.18 in1022.0 mb 0.00 in0.0 mm 0.00 in0.0 mm 0.00 in0.0 mm
05:33 AM 38.5°F3.6°C 33.8°F1.0°C 83% 16.0 mph W25.7 kmh W -- 30.18 in1022.0 mb 0.00 in0.0 mm 0.00 in0.0 mm 0.00 in0.0 mm
05:38 AM 38.3°F3.5°C 33.6°F0.9°C 83% 13.0 mph WSW20.9 kmh WSW -- 30.18 in1022.0 mb 0.00 in0.0 mm 0.00 in0.0 mm 0.00 in0.0 mm
05:43 AM 38.3°F3.5°C 33.9°F1.1°C 84% 7.0 mph S11.3 kmh S -- 30.18 in1022.0 mb 0.00 in0.0 mm 0.00 in0.0 mm 0.00 in0.0 mm
05:48 AM 38.3°F3.5°C 33.6°F0.9°C 83% 13.0 mph WNW20.9 kmh WNW -- 30.18 in1022.0 mb 0.00 in0.0 mm 0.00 in0.0 mm 0.00 in0.0 mm
05:53 AM 38.3°F3.5°C 33.6°F0.9°C 83% 6.0 mph WSW9.7 kmh WSW -- 30.19 in1022.4 mb 0.00 in0.0 mm 0.00 in0.0 mm 0.00 in0.0 mm
05:58 AM 38.1°F3.4°C 33.4°F0.8°C 83% 9.0 mph W14.5 kmh W -- 30.19 in1022.4 mb 0.00 in0.0 mm 0.00 in0.0 mm 0.00 in0.0 mm
06:03 AM 38.1°F3.4°C 33.1°F0.6°C 82% 10.0 mph W16.1 kmh W -- 30.19 in1022.4 mb 0.00 in0.0 mm 0.00 in0.0 mm 0.00 in0.0 mm
06:08 AM 37.9°F3.3°C 32.9°F0.5°C 82% 15.0 mph WSW24.1 kmh WSW -- 30.19 in1022.4 mb 0.00 in0.0 mm 0.00 in0.0 mm 0.00 in0.0 mm
06:13 AM 37.9°F3.3°C 33.2°F0.7°C 83% 12.0 mph W19.3 kmh W -- 30.19 in1022.4 mb 0.00 in0.0 mm 0.00 in0.0 mm 0.00 in0.0 mm
06:18 AM 37.9°F3.3°C 33.2°F0.7°C 83% 10.0 mph W16.1 kmh W -- 30.19 in1022.4 mb 0.00 in0.0 mm 0.00 in0.0 mm 0.00 in0.0 mm
06:23 AM 37.8°F3.2°C 33.1°F0.6°C 83% 9.0 mph WSW14.5 kmh WSW -- 30.20 in1022.7 mb 0.00 in0.0 mm 0.00 in0.0 mm 0.00 in0.0 mm
06:28 AM 37.8°F3.2°C 33.1°F0.6°C 83% 12.0 mph W19.3 kmh W -- 30.20 in1022.7 mb 0.00 in0.0 mm 0.00 in0.0 mm 0.00 in0.0 mm
06:33 AM 37.8°F3.2°C 32.8°F0.4°C 82% 8.0 mph W12.9 kmh W -- 30.20 in1022.7 mb 0.00 in0.0 mm 0.00 in0.0 mm 0.00 in0.0 mm
06:38 AM 37.8°F3.2°C 32.8°F0.4°C 82% 15.0 mph W24.1 kmh W -- 30.21 in1023.0 mb 0.00 in0.0 mm 0.00 in0.0 mm 0.00 in0.0 mm
06:43 AM 37.6°F3.1°C 32.3°F0.2°C 81% 19.0 mph W30.6 kmh W -- 30.20 in1022.7 mb 0.00 in0.0 mm 0.00 in0.0 mm 0.00 in0.0 mm
06:48 AM 37.6°F3.1°C 31.7°F-0.2°C 79% 13.0 mph W20.9 kmh W -- 30.20 in1022.7 mb 0.00 in0.0 mm 0.00 in0.0 mm 0.00 in0.0 mm
06:53 AM 37.4°F3.0°C 31.2°F-0.4°C 78% 12.0 mph W19.3 kmh W -- 30.20 in1022.7 mb 0.00 in0.0 mm 0.00 in0.0 mm 0.00 in0.0 mm
06:58 AM 37.4°F3.0°C 31.5°F-0.3°C 79% 14.0 mph W22.5 kmh W -- 30.21 in1023.0 mb 0.00 in0.0 mm 0.00 in0.0 mm 0.00 in0.0 mm
07:03 AM 37.2°F2.9°C 31.3°F-0.4°C 79% 15.0 mph W24.1 kmh W -- 30.20 in1022.7 mb 0.00 in0.0 mm 0.00 in0.0 mm 0.00 in0.0 mm
07:08 AM 37.2°F2.9°C 31.6°F-0.2°C 80% 5.0 mph W8.0 kmh W -- 30.20 in1022.7 mb 0.00 in0.0 mm 0.00 in0.0 mm 0.00 in0.0 mm
07:13 AM 37.2°F2.9°C 31.6°F-0.2°C 80% 9.0 mph SW14.5 kmh SW -- 30.21 in1023.0 mb 0.00 in0.0 mm 0.00 in0.0 mm 0.00 in0.0 mm
07:18 AM 37.2°F2.9°C 31.6°F-0.2°C 80% 9.0 mph WSW14.5 kmh WSW -- 30.21 in1023.0 mb 0.00 in0.0 mm 0.00 in0.0 mm 0.00 in0.0 mm
07:23 AM 37.2°F2.9°C 31.6°F-0.2°C 80% 4.0 mph WSW6.4 kmh WSW -- 30.21 in1023.0 mb 0.00 in0.0 mm 0.00 in0.0 mm 0.00 in0.0 mm
07:28 AM 37.2°F2.9°C 31.3°F-0.4°C 79% 11.0 mph W17.7 kmh W -- 30.21 in1023.0 mb 0.00 in0.0 mm 0.00 in0.0 mm 0.00 in0.0 mm
07:33 AM 37.2°F2.9°C 31.0°F-0.6°C 78% 17.0 mph SW27.4 kmh SW -- 30.21 in1023.0 mb 0.00 in0.0 mm 0.00 in0.0 mm 0.00 in0.0 mm
07:38 AM 37.2°F2.9°C 31.0°F-0.6°C 78% 10.0 mph WSW16.1 kmh WSW -- 30.21 in1023.0 mb 0.00 in0.0 mm 0.00 in0.0 mm 0.00 in0.0 mm
07:43 AM 37.2°F2.9°C 31.3°F-0.4°C 79% 11.0 mph WNW17.7 kmh WNW -- 30.22 in1023.4 mb 0.00 in0.0 mm 0.00 in0.0 mm 0.00 in0.0 mm
07:48 AM 37.2°F2.9°C 31.0°F-0.6°C 78% 17.0 mph W27.4 kmh W -- 30.22 in1023.4 mb 0.00 in0.0 mm 0.00 in0.0 mm 0.00 in0.0 mm
07:53 AM 37.4°F3.0°C 31.2°F-0.4°C 78% 17.0 mph SW27.4 kmh SW -- 30.22 in1023.4 mb 0.00 in0.0 mm 0.00 in0.0 mm 0.00 in0.0 mm
07:58 AM 37.4°F3.0°C 31.2°F-0.4°C 78% 14.0 mph W22.5 kmh W -- 30.22 in1023.4 mb 0.00 in0.0 mm 0.00 in0.0 mm 0.00 in0.0 mm
08:03 AM 37.4°F3.0°C 31.2°F-0.4°C 78% 18.0 mph WSW29.0 kmh WSW -- 30.22 in1023.4 mb 0.00 in0.0 mm 0.00 in0.0 mm 0.00 in0.0 mm
08:08 AM 37.6°F3.1°C 31.4°F-0.3°C 78% 11.0 mph W17.7 kmh W -- 30.23 in1023.7 mb 0.00 in0.0 mm 0.00 in0.0 mm 0.00 in0.0 mm
08:13 AM 37.8°F3.2°C 30.9°F-0.6°C 76% 15.0 mph W24.1 kmh W -- 30.23 in1023.7 mb 0.00 in0.0 mm 0.00 in0.0 mm 0.00 in0.0 mm
08:18 AM 37.8°F3.2°C 30.6°F-0.8°C 75% 11.0 mph E17.7 kmh E -- 30.23 in1023.7 mb 0.00 in0.0 mm 0.00 in0.0 mm 0.00 in0.0 mm
08:23 AM 37.8°F3.2°C 30.6°F-0.8°C 75% 19.0 mph SW30.6 kmh SW -- 30.24 in1024.0 mb 0.00 in0.0 mm 0.00 in0.0 mm 0.00 in0.0 mm
08:28 AM 37.9°F3.3°C 30.7°F-0.7°C 75% 12.0 mph W19.3 kmh W -- 30.23 in1023.7 mb 0.00 in0.0 mm 0.00 in0.0 mm 0.00 in0.0 mm
08:33 AM 38.1°F3.4°C 31.2°F-0.4°C 76% 10.0 mph WSW16.1 kmh WSW -- 30.24 in1024.0 mb 0.00 in0.0 mm 0.00 in0.0 mm 0.00 in0.0 mm
08:38 AM 38.1°F3.4°C 30.9°F-0.6°C 75% 18.0 mph W29.0 kmh W -- 30.24 in1024.0 mb 0.00 in0.0 mm 0.00 in0.0 mm 0.00 in0.0 mm
08:43 AM 38.1°F3.4°C 30.2°F-1.0°C 73% 18.0 mph W29.0 kmh W -- 30.24 in1024.0 mb 0.00 in0.0 mm 0.00 in0.0 mm 0.00 in0.0 mm
08:48 AM 38.7°F3.7°C 30.8°F-0.7°C 73% 9.0 mph WNW14.5 kmh WNW -- 30.24 in1024.0 mb 0.00 in0.0 mm 0.00 in0.0 mm 0.00 in0.0 mm
08:53 AM 38.5°F3.6°C 30.6°F-0.8°C 73% 16.0 mph WSW25.7 kmh WSW -- 30.24 in1024.0 mb 0.00 in0.0 mm 0.00 in0.0 mm 0.00 in0.0 mm
08:58 AM 38.7°F3.7°C 31.1°F-0.5°C 74% 15.0 mph WSW24.1 kmh WSW -- 30.25 in1024.4 mb 0.00 in0.0 mm 0.00 in0.0 mm 0.00 in0.0 mm
09:03 AM 38.7°F3.7°C 31.1°F-0.5°C 74% 8.0 mph WSW12.9 kmh WSW -- 30.25 in1024.4 mb 0.00 in0.0 mm 0.00 in0.0 mm 0.00 in0.0 mm
09:08 AM 38.8°F3.8°C 30.9°F-0.6°C 73% 14.0 mph W22.5 kmh W -- 30.25 in1024.4 mb 0.00 in0.0 mm 0.00 in0.0 mm 0.00 in0.0 mm
09:13 AM 39.2°F4.0°C 31.3°F-0.4°C 73% 10.0 mph W16.1 kmh W -- 30.25 in1024.4 mb 0.00 in0.0 mm 0.00 in0.0 mm 0.00 in0.0 mm
09:18 AM 39.2°F4.0°C 30.9°F-0.6°C 72% 20.0 mph WSW32.2 kmh WSW -- 30.25 in1024.4 mb 0.00 in0.0 mm 0.00 in0.0 mm 0.00 in0.0 mm
09:23 AM 39.6°F4.2°C 31.3°F-0.4°C 72% 10.0 mph W16.1 kmh W -- 30.25 in1024.4 mb 0.00 in0.0 mm 0.00 in0.0 mm 0.00 in0.0 mm
09:28 AM 40.1°F4.5°C 31.5°F-0.3°C 71% 14.0 mph W22.5 kmh W -- 30.26 in1024.7 mb 0.00 in0.0 mm 0.00 in0.0 mm 0.00 in0.0 mm
09:33 AM 39.7°F4.3°C 31.4°F-0.3°C 72% 19.0 mph W30.6 kmh W -- 30.25 in1024.4 mb 0.00 in0.0 mm 0.00 in0.0 mm 0.00 in0.0 mm
09:38 AM 39.9°F4.4°C 32.0°F0.0°C 73% 15.0 mph W24.1 kmh W -- 30.25 in1024.4 mb 0.00 in0.0 mm 0.00 in0.0 mm 0.00 in0.0 mm
09:43 AM 40.5°F4.7°C 31.8°F-0.1°C 71% 16.0 mph WSW25.7 kmh WSW -- 30.25 in1024.4 mb 0.00 in0.0 mm 0.00 in0.0 mm 0.00 in0.0 mm
09:48 AM 40.1°F4.5°C 31.8°F-0.1°C 72% 15.0 mph WSW24.1 kmh WSW -- 30.25 in1024.4 mb 0.00 in0.0 mm 0.00 in0.0 mm 0.00 in0.0 mm
09:53 AM 40.6°F4.8°C 31.6°F-0.2°C 70% 9.0 mph W14.5 kmh W -- 30.25 in1024.4 mb 0.00 in0.0 mm 0.00 in0.0 mm 0.00 in0.0 mm
09:58 AM 41.4°F5.2°C 32.0°F0.0°C 69% 16.0 mph WSW25.7 kmh WSW -- 30.25 in1024.4 mb 0.00 in0.0 mm 0.00 in0.0 mm 0.00 in0.0 mm
10:03 AM 41.7°F5.4°C 33.0°F0.6°C 71% 12.0 mph SW19.3 kmh SW -- 30.26 in1024.7 mb 0.00 in0.0 mm 0.00 in0.0 mm 0.00 in0.0 mm
10:08 AM 41.4°F5.2°C 31.6°F-0.2°C 68% 11.0 mph WNW17.7 kmh WNW -- 30.25 in1024.4 mb 0.00 in0.0 mm 0.00 in0.0 mm 0.00 in0.0 mm
10:13 AM 42.1°F5.6°C 31.9°F-0.1°C 67% 11.0 mph WSW17.7 kmh WSW -- 30.26 in1024.7 mb 0.00 in0.0 mm 0.00 in0.0 mm 0.00 in0.0 mm
10:18 AM 40.6°F4.8°C 31.2°F-0.4°C 69% 21.0 mph W33.8 kmh W -- 30.25 in1024.4 mb 0.00 in0.0 mm 0.00 in0.0 mm 0.00 in0.0 mm
10:28 AM 40.6°F4.8°C 30.9°F-0.6°C 68% 12.0 mph W19.3 kmh W -- 30.26 in1024.7 mb 0.00 in0.0 mm 0.00 in0.0 mm 0.00 in0.0 mm
10:33 AM 41.4°F5.2°C 31.6°F-0.2°C 68% 10.0 mph WNW16.1 kmh WNW -- 30.26 in1024.7 mb 0.00 in0.0 mm 0.00 in0.0 mm 0.00 in0.0 mm
10:38 AM 40.8°F4.9°C 31.1°F-0.5°C 68% 12.0 mph W19.3 kmh W -- 30.25 in1024.4 mb 0.00 in0.0 mm 0.00 in0.0 mm 0.00 in0.0 mm
10:43 AM 40.8°F4.9°C 30.7°F-0.7°C 67% 9.0 mph W14.5 kmh W -- 30.26 in1024.7 mb 0.00 in0.0 mm 0.00 in0.0 mm 0.00 in0.0 mm
10:48 AM 41.0°F5.0°C 30.5°F-0.8°C 66% 11.0 mph W17.7 kmh W -- 30.26 in1024.7 mb 0.00 in0.0 mm 0.00 in0.0 mm 0.00 in0.0 mm
10:53 AM 42.6°F5.9°C 32.0°F0.0°C 66% 8.0 mph WSW12.9 kmh WSW -- 30.26 in1024.7 mb 0.00 in0.0 mm 0.00 in0.0 mm 0.00 in0.0 mm
10:58 AM 43.0°F6.1°C 31.7°F-0.2°C 64% 17.0 mph WSW27.4 kmh WSW -- 30.26 in1024.7 mb 0.00 in0.0 mm 0.00 in0.0 mm 0.00 in0.0 mm
11:03 AM 41.9°F5.5°C 31.4°F-0.3°C 66% 11.0 mph SW17.7 kmh SW -- 30.26 in1024.7 mb 0.00 in0.0 mm 0.00 in0.0 mm 0.00 in0.0 mm
11:08 AM 42.8°F6.0°C 31.5°F-0.3°C 64% 13.0 mph S20.9 kmh S -- 30.26 in1024.7 mb 0.00 in0.0 mm 0.00 in0.0 mm 0.00 in0.0 mm
11:13 AM 41.9°F5.5°C 31.0°F-0.6°C 65% 12.0 mph W19.3 kmh W -- 30.26 in1024.7 mb 0.00 in0.0 mm 0.00 in0.0 mm 0.00 in0.0 mm
11:18 AM 42.1°F5.6°C 31.2°F-0.4°C 65% 10.0 mph WSW16.1 kmh WSW -- 30.26 in1024.7 mb 0.00 in0.0 mm 0.00 in0.0 mm 0.00 in0.0 mm
11:23 AM 42.6°F5.9°C 31.7°F-0.2°C 65% 9.0 mph WSW14.5 kmh WSW -- 30.26 in1024.7 mb 0.00 in0.0 mm 0.00 in0.0 mm 0.00 in0.0 mm
11:28 AM 43.9°F6.6°C 32.9°F0.5°C 65% 13.0 mph SW20.9 kmh SW -- 30.25 in1024.4 mb 0.00 in0.0 mm 0.00 in0.0 mm 0.00 in0.0 mm
11:33 AM 43.2°F6.2°C 32.2°F0.1°C 65% 14.0 mph SW22.5 kmh SW -- 30.25 in1024.4 mb 0.00 in0.0 mm 0.00 in0.0 mm 0.00 in0.0 mm
11:38 AM 43.9°F6.6°C 31.7°F-0.2°C 62% 7.0 mph NNE11.3 kmh NNE -- 30.26 in1024.7 mb 0.00 in0.0 mm 0.00 in0.0 mm 0.00 in0.0 mm
11:43 AM 44.1°F6.7°C 31.5°F-0.3°C 61% 13.0 mph W20.9 kmh W -- 30.25 in1024.4 mb 0.00 in0.0 mm 0.00 in0.0 mm 0.00 in0.0 mm
11:48 AM 43.5°F6.4°C 32.1°F0.1°C 64% 13.0 mph W20.9 kmh W -- 30.25 in1024.4 mb 0.00 in0.0 mm 0.00 in0.0 mm 0.00 in0.0 mm
11:53 AM 43.0°F6.1°C 31.7°F-0.2°C 64% 14.0 mph W22.5 kmh W -- 30.25 in1024.4 mb 0.00 in0.0 mm 0.00 in0.0 mm 0.00 in0.0 mm
11:58 AM 42.8°F6.0°C 31.5°F-0.3°C 64% 9.0 mph SW14.5 kmh SW -- 30.25 in1024.4 mb 0.00 in0.0 mm 0.00 in0.0 mm 0.00 in0.0 mm
12:03 PM 42.6°F5.9°C 31.7°F-0.2°C 65% 10.0 mph W16.1 kmh W -- 30.25 in1024.4 mb 0.00 in0.0 mm 0.00 in0.0 mm 0.00 in0.0 mm
12:08 PM 43.9°F6.6°C 31.7°F-0.2°C 62% 12.0 mph W19.3 kmh W -- 30.25 in1024.4 mb 0.00 in0.0 mm 0.00 in0.0 mm 0.00 in0.0 mm
12:13 PM 44.6°F7.0°C 32.0°F0.0°C 61% 10.0 mph SSW16.1 kmh SSW -- 30.24 in1024.0 mb 0.00 in0.0 mm 0.00 in0.0 mm 0.00 in0.0 mm
12:18 PM 45.1°F7.3°C 31.2°F-0.4°C 58% 15.0 mph WSW24.1 kmh WSW -- 30.24 in1024.0 mb 0.00 in0.0 mm 0.00 in0.0 mm 0.00 in0.0 mm
12:23 PM 45.1°F7.3°C 31.6°F-0.2°C 59% 11.0 mph S17.7 kmh S -- 30.24 in1024.0 mb 0.00 in0.0 mm 0.00 in0.0 mm 0.00 in0.0 mm
12:28 PM 45.1°F7.3°C 31.6°F-0.2°C 59% 14.0 mph W22.5 kmh W -- 30.24 in1024.0 mb 0.00 in0.0 mm 0.00 in0.0 mm 0.00 in0.0 mm
12:33 PM 45.3°F7.4°C 31.4°F-0.3°C 58% 11.0 mph WSW17.7 kmh WSW -- 30.24 in1024.0 mb 0.00 in0.0 mm 0.00 in0.0 mm 0.00 in0.0 mm
12:38 PM 45.0°F7.2°C 30.7°F-0.7°C 57% 11.0 mph W17.7 kmh W -- 30.24 in1024.0 mb 0.00 in0.0 mm 0.00 in0.0 mm 0.00 in0.0 mm
12:43 PM 45.5°F7.5°C 31.2°F-0.4°C 57% 13.0 mph WSW20.9 kmh WSW -- 30.24 in1024.0 mb 0.00 in0.0 mm 0.00 in0.0 mm 0.00 in0.0 mm
12:48 PM 45.7°F7.6°C 31.8°F-0.1°C 58% 17.0 mph S27.4 kmh S -- 30.24 in1024.0 mb 0.00 in0.0 mm 0.00 in0.0 mm 0.00 in0.0 mm
12:53 PM 46.2°F7.9°C 31.8°F-0.1°C 57% 16.0 mph SSW25.7 kmh SSW -- 30.24 in1024.0 mb 0.00 in0.0 mm 0.00 in0.0 mm 0.00 in0.0 mm
12:58 PM 47.1°F8.4°C 32.2°F0.1°C 56% 15.0 mph W24.1 kmh W -- 30.24 in1024.0 mb 0.00 in0.0 mm 0.00 in0.0 mm 0.00 in0.0 mm
01:03 PM 45.9°F7.7°C 31.5°F-0.3°C 57% 16.0 mph W25.7 kmh W -- 30.24 in1024.0 mb 0.00 in0.0 mm 0.00 in0.0 mm 0.00 in0.0 mm
01:08 PM 45.7°F7.6°C 30.9°F-0.6°C 56% 15.0 mph W24.1 kmh W -- 30.24 in1024.0 mb 0.00 in0.0 mm 0.00 in0.0 mm 0.00 in0.0 mm
01:13 PM 46.4°F8.0°C 31.6°F-0.2°C 56% 8.0 mph SE12.9 kmh SE -- 30.24 in1024.0 mb 0.00 in0.0 mm 0.00 in0.0 mm 0.00 in0.0 mm
01:18 PM 47.8°F8.8°C 32.9°F0.5°C 56% 7.0 mph S11.3 kmh S -- 30.24 in1024.0 mb 0.00 in0.0 mm 0.00 in0.0 mm 0.00 in0.0 mm
01:23 PM 46.0°F7.8°C 31.6°F-0.2°C 57% 10.0 mph W16.1 kmh W -- 30.23 in1023.7 mb 0.00 in0.0 mm 0.00 in0.0 mm 0.00 in0.0 mm
01:28 PM 46.4°F8.0°C 32.0°F0.0°C 57% 15.0 mph ESE24.1 kmh ESE -- 30.23 in1023.7 mb 0.00 in0.0 mm 0.00 in0.0 mm 0.00 in0.0 mm
01:33 PM 46.2°F7.9°C 30.9°F-0.6°C 55% 10.0 mph SSE16.1 kmh SSE -- 30.23 in1023.7 mb 0.00 in0.0 mm 0.00 in0.0 mm 0.00 in0.0 mm
01:38 PM 46.0°F7.8°C 30.3°F-0.9°C 54% 11.0 mph WSW17.7 kmh WSW -- 30.23 in1023.7 mb 0.00 in0.0 mm 0.00 in0.0 mm 0.00 in0.0 mm
01:43 PM 46.6°F8.1°C 30.4°F-0.9°C 53% 12.0 mph WSW19.3 kmh WSW -- 30.23 in1023.7 mb 0.00 in0.0 mm 0.00 in0.0 mm 0.00 in0.0 mm
01:48 PM 46.6°F8.1°C 31.3°F-0.4°C 55% 5.0 mph S8.0 kmh S -- 30.23 in1023.7 mb 0.00 in0.0 mm 0.00 in0.0 mm 0.00 in0.0 mm
01:53 PM 48.2°F9.0°C 31.9°F-0.1°C 53% 8.0 mph SSW12.9 kmh SSW -- 30.23 in1023.7 mb 0.00 in0.0 mm 0.00 in0.0 mm 0.00 in0.0 mm
01:58 PM 47.3°F8.5°C 30.1°F-1.1°C 51% 9.0 mph S14.5 kmh S -- 30.23 in1023.7 mb 0.00 in0.0 mm 0.00 in0.0 mm 0.00 in0.0 mm
02:03 PM 47.1°F8.4°C 29.4°F-1.4°C 50% 14.0 mph W22.5 kmh W -- 30.23 in1023.7 mb 0.00 in0.0 mm 0.00 in0.0 mm 0.00 in0.0 mm
02:08 PM 46.8°F8.2°C 29.2°F-1.6°C 50% 16.0 mph W25.7 kmh W -- 30.23 in1023.7 mb 0.00 in0.0 mm 0.00 in0.0 mm 0.00 in0.0 mm
02:13 PM 47.1°F8.4°C 29.9°F-1.2°C 51% 11.0 mph SSW17.7 kmh SSW -- 30.23 in1023.7 mb 0.00 in0.0 mm 0.00 in0.0 mm 0.00 in0.0 mm
02:18 PM 48.0°F8.9°C 29.3°F-1.5°C 48% 11.0 mph W17.7 kmh W -- 30.23 in1023.7 mb 0.00 in0.0 mm 0.00 in0.0 mm 0.00 in0.0 mm
02:23 PM 47.7°F8.7°C 29.5°F-1.4°C 49% 9.0 mph W14.5 kmh W -- 30.23 in1023.7 mb 0.00 in0.0 mm 0.00 in0.0 mm 0.00 in0.0 mm
02:28 PM 48.2°F9.0°C 29.9°F-1.2°C 49% 8.0 mph SSW12.9 kmh SSW -- 30.23 in1023.7 mb 0.00 in0.0 mm 0.00 in0.0 mm 0.00 in0.0 mm
02:33 PM 48.4°F9.1°C 30.1°F-1.1°C 49% 11.0 mph W17.7 kmh W -- 30.23 in1023.7 mb 0.00 in0.0 mm 0.00 in0.0 mm 0.00 in0.0 mm
02:38 PM 48.0°F8.9°C 29.8°F-1.2°C 49% 10.0 mph S16.1 kmh S -- 30.23 in1023.7 mb 0.00 in0.0 mm 0.00 in0.0 mm 0.00 in0.0 mm
02:43 PM 47.5°F8.6°C 28.3°F-2.1°C 47% 11.0 mph W17.7 kmh W -- 30.22 in1023.4 mb 0.00 in0.0 mm 0.00 in0.0 mm 0.00 in0.0 mm
02:48 PM 47.5°F8.6°C 29.3°F-1.5°C 49% 8.0 mph W12.9 kmh W -- 30.23 in1023.7 mb 0.00 in0.0 mm 0.00 in0.0 mm 0.00 in0.0 mm
02:53 PM 47.3°F8.5°C 28.6°F-1.9°C 48% 12.0 mph W19.3 kmh W -- 30.23 in1023.7 mb 0.00 in0.0 mm 0.00 in0.0 mm 0.00 in0.0 mm
02:58 PM 47.1°F8.4°C 28.4°F-2.0°C 48% 15.0 mph W24.1 kmh W -- 30.23 in1023.7 mb 0.00 in0.0 mm 0.00 in0.0 mm 0.00 in0.0 mm
03:03 PM 47.5°F8.6°C 29.3°F-1.5°C 49% 14.0 mph W22.5 kmh W -- 30.23 in1023.7 mb 0.00 in0.0 mm 0.00 in0.0 mm 0.00 in0.0 mm
03:08 PM 48.0°F8.9°C 29.8°F-1.2°C 49% 9.0 mph W14.5 kmh W -- 30.23 in1023.7 mb 0.00 in0.0 mm 0.00 in0.0 mm 0.00 in0.0 mm
03:13 PM 48.6°F9.2°C 30.3°F-0.9°C 49% 13.0 mph W20.9 kmh W -- 30.23 in1023.7 mb 0.00 in0.0 mm 0.00 in0.0 mm 0.00 in0.0 mm
03:18 PM 48.2°F9.0°C 28.9°F-1.7°C 47% 9.0 mph NNE14.5 kmh NNE -- 30.23 in1023.7 mb 0.00 in0.0 mm 0.00 in0.0 mm 0.00 in0.0 mm
03:23 PM 48.0°F8.9°C 29.3°F-1.5°C 48% 8.0 mph SW12.9 kmh SW -- 30.23 in1023.7 mb 0.00 in0.0 mm 0.00 in0.0 mm 0.00 in0.0 mm
03:28 PM 47.5°F8.6°C 28.8°F-1.8°C 48% 8.0 mph W12.9 kmh W -- 30.23 in1023.7 mb 0.00 in0.0 mm 0.00 in0.0 mm 0.00 in0.0 mm
03:33 PM 48.0°F8.9°C 28.7°F-1.8°C 47% 13.0 mph W20.9 kmh W -- 30.23 in1023.7 mb 0.00 in0.0 mm 0.00 in0.0 mm 0.00 in0.0 mm
03:38 PM 47.7°F8.7°C 29.0°F-1.7°C 48% 14.0 mph W22.5 kmh W -- 30.24 in1024.0 mb 0.00 in0.0 mm 0.00 in0.0 mm 0.00 in0.0 mm
03:43 PM 47.3°F8.5°C 28.6°F-1.9°C 48% 11.0 mph SW17.7 kmh SW -- 30.23 in1023.7 mb 0.00 in0.0 mm 0.00 in0.0 mm 0.00 in0.0 mm
03:48 PM 47.7°F8.7°C 29.0°F-1.7°C 48% 7.0 mph W11.3 kmh W -- 30.24 in1024.0 mb 0.00 in0.0 mm 0.00 in0.0 mm 0.00 in0.0 mm
03:53 PM 47.5°F8.6°C 28.8°F-1.8°C 48% 12.0 mph WNW19.3 kmh WNW -- 30.24 in1024.0 mb 0.00 in0.0 mm 0.00 in0.0 mm 0.00 in0.0 mm
03:58 PM 46.6°F8.1°C 28.5°F-1.9°C 49% 7.0 mph W11.3 kmh W -- 30.24 in1024.0 mb 0.00 in0.0 mm 0.00 in0.0 mm 0.00 in0.0 mm
04:03 PM 46.6°F8.1°C 28.5°F-1.9°C 49% 6.0 mph W9.7 kmh W -- 30.24 in1024.0 mb 0.00 in0.0 mm 0.00 in0.0 mm 0.00 in0.0 mm
04:08 PM 46.8°F8.2°C 28.7°F-1.8°C 49% 17.0 mph W27.4 kmh W -- 30.24 in1024.0 mb 0.00 in0.0 mm 0.00 in0.0 mm 0.00 in0.0 mm
04:13 PM 46.8°F8.2°C 28.2°F-2.1°C 48% 15.0 mph W24.1 kmh W -- 30.24 in1024.0 mb 0.00 in0.0 mm 0.00 in0.0 mm 0.00 in0.0 mm
04:18 PM 46.4°F8.0°C 28.3°F-2.1°C 49% 10.0 mph W16.1 kmh W -- 30.24 in1024.0 mb 0.00 in0.0 mm 0.00 in0.0 mm 0.00 in0.0 mm
04:23 PM 46.6°F8.1°C 29.0°F-1.7°C 50% 9.0 mph WSW14.5 kmh WSW -- 30.24 in1024.0 mb 0.00 in0.0 mm 0.00 in0.0 mm 0.00 in0.0 mm
04:28 PM 46.6°F8.1°C 28.5°F-1.9°C 49% 10.0 mph W16.1 kmh W -- 30.25 in1024.4 mb 0.00 in0.0 mm 0.00 in0.0 mm 0.00 in0.0 mm
04:33 PM 46.4°F8.0°C 28.3°F-2.1°C 49% 7.0 mph W11.3 kmh W -- 30.24 in1024.0 mb 0.00 in0.0 mm 0.00 in0.0 mm 0.00 in0.0 mm
04:38 PM 46.2°F7.9°C 28.1°F-2.2°C 49% 11.0 mph W17.7 kmh W -- 30.25 in1024.4 mb 0.00 in0.0 mm 0.00 in0.0 mm 0.00 in0.0 mm
04:43 PM 46.2°F7.9°C 28.1°F-2.2°C 49% 6.0 mph NW9.7 kmh NW -- 30.25 in1024.4 mb 0.00 in0.0 mm 0.00 in0.0 mm 0.00 in0.0 mm
04:48 PM 46.2°F7.9°C 28.6°F-1.9°C 50% 6.0 mph W9.7 kmh W -- 30.25 in1024.4 mb 0.00 in0.0 mm 0.00 in0.0 mm 0.00 in0.0 mm
04:53 PM 45.9°F7.7°C 27.8°F-2.3°C 49% 11.0 mph W17.7 kmh W -- 30.25 in1024.4 mb 0.00 in0.0 mm 0.00 in0.0 mm 0.00 in0.0 mm
04:58 PM 45.9°F7.7°C 27.8°F-2.3°C 49% 6.0 mph W9.7 kmh W -- 30.25 in1024.4 mb 0.00 in0.0 mm 0.00 in0.0 mm 0.00 in0.0 mm
05:03 PM 46.0°F7.8°C 28.4°F-2.0°C 50% 15.0 mph W24.1 kmh W -- 30.25 in1024.4 mb 0.00 in0.0 mm 0.00 in0.0 mm 0.00 in0.0 mm
05:08 PM 45.3°F7.4°C 28.3°F-2.1°C 51% 8.0 mph W12.9 kmh W -- 30.25 in1024.4 mb 0.00 in0.0 mm 0.00 in0.0 mm 0.00 in0.0 mm
05:13 PM 45.0°F7.2°C 28.0°F-2.2°C 51% 13.0 mph W20.9 kmh W -- 30.25 in1024.4 mb 0.00 in0.0 mm 0.00 in0.0 mm 0.00 in0.0 mm
05:18 PM 44.6°F7.0°C 28.5°F-1.9°C 53% 6.0 mph W9.7 kmh W -- 30.25 in1024.4 mb 0.00 in0.0 mm 0.00 in0.0 mm 0.00 in0.0 mm
05:23 PM 44.2°F6.8°C 28.2°F-2.1°C 53% 7.0 mph W11.3 kmh W -- 30.24 in1024.0 mb 0.00 in0.0 mm 0.00 in0.0 mm 0.00 in0.0 mm
05:28 PM 44.2°F6.8°C 27.7°F-2.4°C 52% 8.0 mph WSW12.9 kmh WSW -- 30.25 in1024.4 mb 0.00 in0.0 mm 0.00 in0.0 mm 0.00 in0.0 mm
05:33 PM 43.9°F6.6°C 27.9°F-2.3°C 53% 8.0 mph W12.9 kmh W -- 30.25 in1024.4 mb 0.00 in0.0 mm 0.00 in0.0 mm 0.00 in0.0 mm
05:38 PM 43.9°F6.6°C 27.9°F-2.3°C 53% 5.0 mph W8.0 kmh W -- 30.25 in1024.4 mb 0.00 in0.0 mm 0.00 in0.0 mm 0.00 in0.0 mm
05:43 PM 43.3°F6.3°C 27.3°F-2.6°C 53% 5.0 mph W8.0 kmh W -- 30.25 in1024.4 mb 0.00 in0.0 mm 0.00 in0.0 mm 0.00 in0.0 mm
05:48 PM 43.3°F6.3°C 27.3°F-2.6°C 53% 8.0 mph WSW12.9 kmh WSW -- 30.25 in1024.4 mb 0.00 in0.0 mm 0.00 in0.0 mm 0.00 in0.0 mm
05:53 PM 43.0°F6.1°C 27.5°F-2.5°C 54% 5.0 mph W8.0 kmh W -- 30.25 in1024.4 mb 0.00 in0.0 mm 0.00 in0.0 mm 0.00 in0.0 mm
06:03 PM 42.4°F5.8°C 27.8°F-2.3°C 56% 3.0 mph SSW4.8 kmh SSW -- 30.25 in1024.4 mb 0.00 in0.0 mm 0.00 in0.0 mm 0.00 in0.0 mm
06:08 PM 42.1°F5.6°C 28.0°F-2.2°C 57% 3.0 mph W4.8 kmh W -- 30.25 in1024.4 mb 0.00 in0.0 mm 0.00 in0.0 mm 0.00 in0.0 mm
06:13 PM 41.7°F5.4°C 28.0°F-2.2°C 58% 3.0 mph W4.8 kmh W -- 30.25 in1024.4 mb 0.00 in0.0 mm 0.00 in0.0 mm 0.00 in0.0 mm
06:18 PM 41.4°F5.2°C 28.2°F-2.1°C 59% 3.0 mph SW4.8 kmh SW -- 30.25 in1024.4 mb 0.00 in0.0 mm 0.00 in0.0 mm 0.00 in0.0 mm
06:23 PM 41.0°F5.0°C 28.6°F-1.9°C 61% 2.0 mph W3.2 kmh W -- 30.25 in1024.4 mb 0.00 in0.0 mm 0.00 in0.0 mm 0.00 in0.0 mm
06:28 PM 40.6°F4.8°C 28.2°F-2.1°C 61% 5.0 mph SSW8.0 kmh SSW -- 30.25 in1024.4 mb 0.00 in0.0 mm 0.00 in0.0 mm 0.00 in0.0 mm
06:33 PM 40.6°F4.8°C 28.6°F-1.9°C 62% 3.0 mph SSW4.8 kmh SSW -- 30.25 in1024.4 mb 0.00 in0.0 mm 0.00 in0.0 mm 0.00 in0.0 mm
06:38 PM 40.3°F4.6°C 28.7°F-1.8°C 63% 2.0 mph SSW3.2 kmh SSW -- 30.25 in1024.4 mb 0.00 in0.0 mm 0.00 in0.0 mm 0.00 in0.0 mm
06:43 PM 39.7°F4.3°C 28.5°F-1.9°C 64% 2.0 mph WSW3.2 kmh WSW -- 30.25 in1024.4 mb 0.00 in0.0 mm 0.00 in0.0 mm 0.00 in0.0 mm
06:48 PM 39.6°F4.2°C 28.4°F-2.0°C 64% 3.0 mph W4.8 kmh W -- 30.26 in1024.7 mb 0.00 in0.0 mm 0.00 in0.0 mm 0.00 in0.0 mm
06:53 PM 39.4°F4.1°C 28.6°F-1.9°C 65% 2.0 mph S3.2 kmh S -- 30.25 in1024.4 mb 0.00 in0.0 mm 0.00 in0.0 mm 0.00 in0.0 mm
06:58 PM 39.0°F3.9°C 28.6°F-1.9°C 66% 2.0 mph S3.2 kmh S -- 30.25 in1024.4 mb 0.00 in0.0 mm 0.00 in0.0 mm 0.00 in0.0 mm
07:03 PM 38.8°F3.8°C 28.8°F-1.8°C 67% 1.0 mph SSW1.6 kmh SSW -- 30.25 in1024.4 mb 0.00 in0.0 mm 0.00 in0.0 mm 0.00 in0.0 mm
07:08 PM 38.5°F3.6°C 28.5°F-1.9°C 67% 1.0 mph S1.6 kmh S -- 30.25 in1024.4 mb 0.00 in0.0 mm 0.00 in0.0 mm 0.00 in0.0 mm
07:13 PM 38.3°F3.5°C 28.3°F-2.1°C 67% 1.0 mph S1.6 kmh S -- 30.25 in1024.4 mb 0.00 in0.0 mm 0.00 in0.0 mm 0.00 in0.0 mm
07:18 PM 37.9°F3.3°C 28.3°F-2.1°C 68% 1.0 mph SSW1.6 kmh SSW -- 30.25 in1024.4 mb 0.00 in0.0 mm 0.00 in0.0 mm 0.00 in0.0 mm
07:23 PM 37.6°F3.1°C 28.4°F-2.0°C 69% 3.0 mph S4.8 kmh S -- 30.25 in1024.4 mb 0.00 in0.0 mm 0.00 in0.0 mm 0.00 in0.0 mm
07:28 PM 37.6°F3.1°C 28.7°F-1.8°C 70% 2.0 mph W3.2 kmh W -- 30.25 in1024.4 mb 0.00 in0.0 mm 0.00 in0.0 mm 0.00 in0.0 mm
07:33 PM 37.6°F3.1°C 29.1°F-1.6°C 71% 2.0 mph SSW3.2 kmh SSW -- 30.25 in1024.4 mb 0.00 in0.0 mm 0.00 in0.0 mm 0.00 in0.0 mm
07:38 PM 37.6°F3.1°C 29.1°F-1.6°C 71% 3.0 mph W4.8 kmh W -- 30.25 in1024.4 mb 0.00 in0.0 mm 0.00 in0.0 mm 0.00 in0.0 mm
07:43 PM 37.2°F2.9°C 29.0°F-1.7°C 72% 3.0 mph SSW4.8 kmh SSW -- 30.25 in1024.4 mb 0.00 in0.0 mm 0.00 in0.0 mm 0.00 in0.0 mm
07:48 PM 37.2°F2.9°C 29.0°F-1.7°C 72% 1.0 mph S1.6 kmh S -- 30.25 in1024.4 mb 0.00 in0.0 mm 0.00 in0.0 mm 0.00 in0.0 mm
07:53 PM 37.2°F2.9°C 29.0°F-1.7°C 72% 2.0 mph SSW3.2 kmh SSW -- 30.26 in1024.7 mb 0.00 in0.0 mm 0.00 in0.0 mm 0.00 in0.0 mm
07:58 PM 37.2°F2.9°C 29.0°F-1.7°C 72% 2.0 mph S3.2 kmh S -- 30.26 in1024.7 mb 0.00 in0.0 mm 0.00 in0.0 mm 0.00 in0.0 mm
08:03 PM 37.0°F2.8°C 28.8°F-1.8°C 72% 2.0 mph S3.2 kmh S -- 30.26 in1024.7 mb 0.00 in0.0 mm 0.00 in0.0 mm 0.00 in0.0 mm
08:08 PM 36.7°F2.6°C 28.9°F-1.7°C 73% 1.0 mph S1.6 kmh S -- 30.26 in1024.7 mb 0.00 in0.0 mm 0.00 in0.0 mm 0.00 in0.0 mm
08:13 PM 36.3°F2.4°C 28.8°F-1.8°C 74% Calm Calm -- 30.26 in1024.7 mb 0.00 in0.0 mm 0.00 in0.0 mm 0.00 in0.0 mm
08:18 PM 36.1°F2.3°C 29.0°F-1.7°C 75% Calm Calm -- 30.26 in1024.7 mb 0.00 in0.0 mm 0.00 in0.0 mm 0.00 in0.0 mm
08:23 PM 35.8°F2.1°C 29.3°F-1.5°C 77% Calm Calm -- 30.26 in1024.7 mb 0.00 in0.0 mm 0.00 in0.0 mm 0.00 in0.0 mm
08:28 PM 35.6°F2.0°C 29.4°F-1.4°C 78% Calm Calm -- 30.26 in1024.7 mb 0.00 in0.0 mm 0.00 in0.0 mm 0.00 in0.0 mm
08:33 PM 35.4°F1.9°C 29.5°F-1.4°C 79% 1.0 mph ESE1.6 kmh ESE -- 30.26 in1024.7 mb 0.00 in0.0 mm 0.00 in0.0 mm 0.00 in0.0 mm
08:38 PM 35.2°F1.8°C 29.7°F-1.3°C 80% 1.0 mph E1.6 kmh E -- 30.26 in1024.7 mb 0.00 in0.0 mm 0.00 in0.0 mm 0.00 in0.0 mm
08:43 PM 35.1°F1.7°C 29.9°F-1.2°C 81% 1.0 mph SSW1.6 kmh SSW -- 30.26 in1024.7 mb 0.00 in0.0 mm 0.00 in0.0 mm 0.00 in0.0 mm
08:48 PM 34.9°F1.6°C 30.0°F-1.1°C 82% Calm Calm -- 30.26 in1024.7 mb 0.00 in0.0 mm 0.00 in0.0 mm 0.00 in0.0 mm
08:53 PM 34.5°F1.4°C 29.6°F-1.3°C 82% Calm Calm -- 30.26 in1024.7 mb 0.00 in0.0 mm 0.00 in0.0 mm 0.00 in0.0 mm
08:58 PM 34.2°F1.2°C 29.6°F-1.3°C 83% Calm Calm -- 30.26 in1024.7 mb 0.00 in0.0 mm 0.00 in0.0 mm 0.00 in0.0 mm
09:03 PM 34.2°F1.2°C 29.6°F-1.3°C 83% 1.0 mph SSE1.6 kmh SSE -- 30.26 in1024.7 mb 0.00 in0.0 mm 0.00 in0.0 mm 0.00 in0.0 mm
09:08 PM 34.0°F1.1°C 29.7°F-1.3°C 84% 1.0 mph ESE1.6 kmh ESE -- 30.26 in1024.7 mb 0.00 in0.0 mm 0.00 in0.0 mm 0.00 in0.0 mm
09:13 PM 33.8°F1.0°C 29.5°F-1.4°C 84% 1.0 mph S1.6 kmh S -- 30.26 in1024.7 mb 0.00 in0.0 mm 0.00 in0.0 mm 0.00 in0.0 mm
09:18 PM 34.0°F1.1°C 29.7°F-1.3°C 84% Calm Calm -- 30.25 in1024.4 mb 0.00 in0.0 mm 0.00 in0.0 mm 0.00 in0.0 mm
09:23 PM 33.8°F1.0°C 29.5°F-1.4°C 84% 2.0 mph ESE3.2 kmh ESE -- 30.25 in1024.4 mb 0.00 in0.0 mm 0.00 in0.0 mm 0.00 in0.0 mm
09:28 PM 33.8°F1.0°C 29.5°F-1.4°C 84% 1.0 mph NNE1.6 kmh NNE -- 30.25 in1024.4 mb 0.00 in0.0 mm 0.00 in0.0 mm 0.00 in0.0 mm
09:33 PM 33.8°F1.0°C 29.5°F-1.4°C 84% 1.0 mph S1.6 kmh S -- 30.25 in1024.4 mb 0.00 in0.0 mm 0.00 in0.0 mm 0.00 in0.0 mm
09:38 PM 33.8°F1.0°C 29.5°F-1.4°C 84% 2.0 mph W3.2 kmh W -- 30.25 in1024.4 mb 0.00 in0.0 mm 0.00 in0.0 mm 0.00 in0.0 mm
09:43 PM 33.8°F1.0°C 29.5°F-1.4°C 84% 1.0 mph SE1.6 kmh SE -- 30.25 in1024.4 mb 0.00 in0.0 mm 0.00 in0.0 mm 0.00 in0.0 mm
09:48 PM 33.4°F0.8°C 29.4°F-1.4°C 85% Calm Calm -- 30.25 in1024.4 mb 0.00 in0.0 mm 0.00 in0.0 mm 0.00 in0.0 mm
09:53 PM 33.3°F0.7°C 29.6°F-1.3°C 86% 1.0 mph ESE1.6 kmh ESE -- 30.25 in1024.4 mb 0.00 in0.0 mm 0.00 in0.0 mm 0.00 in0.0 mm
09:58 PM 33.3°F0.7°C 29.6°F-1.3°C 86% 1.0 mph ESE1.6 kmh ESE -- 30.25 in1024.4 mb 0.00 in0.0 mm 0.00 in0.0 mm 0.00 in0.0 mm
10:03 PM 33.1°F0.6°C 29.4°F-1.4°C 86% Calm Calm -- 30.25 in1024.4 mb 0.00 in0.0 mm 0.00 in0.0 mm 0.00 in0.0 mm
10:08 PM 32.9°F0.5°C 29.2°F-1.6°C 86% 2.0 mph SW3.2 kmh SW -- 30.25 in1024.4 mb 0.00 in0.0 mm 0.00 in0.0 mm 0.00 in0.0 mm
10:13 PM 32.9°F0.5°C 29.5°F-1.4°C 87% 1.0 mph ESE1.6 kmh ESE -- 30.24 in1024.0 mb 0.00 in0.0 mm 0.00 in0.0 mm 0.00 in0.0 mm
10:18 PM 32.7°F0.4°C 29.3°F-1.5°C 87% 1.0 mph ESE1.6 kmh ESE -- 30.24 in1024.0 mb 0.00 in0.0 mm 0.00 in0.0 mm 0.00 in0.0 mm
10:23 PM 32.7°F0.4°C 29.3°F-1.5°C 87% 2.0 mph ENE3.2 kmh ENE -- 30.24 in1024.0 mb 0.00 in0.0 mm 0.00 in0.0 mm 0.00 in0.0 mm
10:28 PM 32.7°F0.4°C 29.3°F-1.5°C 87% 1.0 mph S1.6 kmh S -- 30.24 in1024.0 mb 0.00 in0.0 mm 0.00 in0.0 mm 0.00 in0.0 mm
10:33 PM 32.5°F0.3°C 29.1°F-1.6°C 87% 1.0 mph S1.6 kmh S -- 30.24 in1024.0 mb 0.00 in0.0 mm 0.00 in0.0 mm 0.00 in0.0 mm
10:38 PM 32.5°F0.3°C 29.3°F-1.5°C 88% Calm Calm -- 30.24 in1024.0 mb 0.00 in0.0 mm 0.00 in0.0 mm 0.00 in0.0 mm
10:43 PM 32.5°F0.3°C 29.3°F-1.5°C 88% Calm Calm -- 30.24 in1024.0 mb 0.00 in0.0 mm 0.00 in0.0 mm 0.00 in0.0 mm
10:48 PM 32.4°F0.2°C 29.3°F-1.5°C 88% Calm Calm -- 30.24 in1024.0 mb 0.00 in0.0 mm 0.00 in0.0 mm 0.00 in0.0 mm
10:53 PM 32.5°F0.3°C 29.3°F-1.5°C 88% Calm Calm -- 30.24 in1024.0 mb 0.00 in0.0 mm 0.00 in0.0 mm 0.00 in0.0 mm
10:58 PM 32.5°F0.3°C 29.3°F-1.5°C 88% 1.0 mph E1.6 kmh E -- 30.24 in1024.0 mb 0.00 in0.0 mm 0.00 in0.0 mm 0.00 in0.0 mm
11:03 PM 32.2°F0.1°C 29.1°F-1.6°C 88% 1.0 mph NE1.6 kmh NE -- 30.24 in1024.0 mb 0.00 in0.0 mm 0.00 in0.0 mm 0.00 in0.0 mm
11:08 PM 32.5°F0.3°C 29.3°F-1.5°C 88% Calm Calm -- 30.24 in1024.0 mb 0.00 in0.0 mm 0.00 in0.0 mm 0.00 in0.0 mm
11:13 PM 32.0°F0.0°C 29.1°F-1.6°C 89% Calm Calm -- 30.24 in1024.0 mb 0.00 in0.0 mm 0.00 in0.0 mm 0.00 in0.0 mm
11:18 PM 32.0°F0.0°C 29.4°F-1.4°C 90% Calm Calm -- 30.23 in1023.7 mb 0.00 in0.0 mm 0.00 in0.0 mm 0.00 in0.0 mm
11:23 PM 31.8°F-0.1°C 29.2°F-1.6°C 90% Calm Calm -- 30.24 in1024.0 mb 0.00 in0.0 mm 0.00 in0.0 mm 0.00 in0.0 mm
11:28 PM 31.5°F-0.3°C 28.9°F-1.7°C 90% Calm Calm -- 30.24 in1024.0 mb 0.00 in0.0 mm 0.00 in0.0 mm 0.00 in0.0 mm
11:33 PM 31.6°F-0.2°C 29.3°F-1.5°C 91% 1.0 mph SSE1.6 kmh SSE -- 30.24 in1024.0 mb 0.00 in0.0 mm 0.00 in0.0 mm 0.00 in0.0 mm
11:38 PM 31.6°F-0.2°C 29.3°F-1.5°C 91% Calm Calm -- 30.23 in1023.7 mb 0.00 in0.0 mm 0.00 in0.0 mm 0.00 in0.0 mm
11:43 PM 31.5°F-0.3°C 29.2°F-1.6°C 91% 2.0 mph SE3.2 kmh SE -- 30.23 in1023.7 mb 0.00 in0.0 mm 0.00 in0.0 mm 0.00 in0.0 mm
11:48 PM 31.5°F-0.3°C 29.2°F-1.6°C 91% 1.0 mph SSE1.6 kmh SSE -- 30.23 in1023.7 mb 0.00 in0.0 mm 0.00 in0.0 mm 0.00 in0.0 mm
11:53 PM 31.5°F-0.3°C 29.2°F-1.6°C 91% 2.0 mph S3.2 kmh S -- 30.23 in1023.7 mb 0.00 in0.0 mm 0.00 in0.0 mm 0.00 in0.0 mm
11:58 PM 31.6°F-0.2°C 29.3°F-1.5°C 91% 1.0 mph E1.6 kmh E -- 30.23 in1023.7 mb 0.00 in0.0 mm 0.00 in0.0 mm 0.00 in0.0 mm